Bridgewater, Michigan
Current Conditions -  °F | °C
As of 8:53 AM on Sunday 25 Jan 2015 (Local Time) from KARB Reporting Station
Overcast Overcast  
Wind Chill: 12°   Ceiling: 2700
Heat Index: 25°   Visibility: 10mi
Dew Point: 19°   Wind: 16mph
Humidity: 78%   Direction: 50°NE
Pressure: 29.83"   Gusts: 21mph
Location:  42.16°N, 83.9°W
Report Text: KARB 251353Z 05014G18KT 10SM FEW018 OVC027 M04/M07 A2983 RMK AO2 SLP111 T10391072
Loading
Personal Weather Stations






























Interactive Weather Map New forecast layout! Learn more

10-Day Weather Forecast

Advertisements
Track Severe Weather on mobile